logo
Search for airport 
image banner adimage banner adimage banner ad
image banner ad

KDRT - Del Rio Intl

Located in Del Rio, United States

ICAO - DRT, IATA - DRT

Data provided by Airmate  

General information

Coordinates: N29°22'27" W100°55'38"
Elevation is 1002 feet MSL.
Magnetic variation is 08° East
View others Airports in Texas

Operational data

Special qualification required
Current time UTC:
Current local time:
Weather
METAR: KDRT 270153Z AUTO 05004KT 10SM CLR 39/M04 A2969 RMK AO2 SLP041 T03891044 $
TAF: KDRT 262337Z 2700/2724 33010KT P6SM SKC FM270200 08005KT P6SM SCT250 FM271300 12009KT P6SM SCT020
View NOTAMs / SUP AIP / TFR affecting this airport [VIEW]
Communications frequencies: [VIEW]

Runways:

RWY identifierQFULength (ft)Width (ft)SurfaceLDA (ft)
13140°6300100ASPH6000
31320°6300100ASPH5980
H100UNK
H200UNK

Airport contact information

Address: Del Rio United States

Satellite view of KDRT